Norwegian Spirit — C6TQ6 — position and weather

sailwx.info

Track history (hours):
 
Tides and Currents Weather Stations Pressure Air Temp Water Temp Dewpoint Dewpoint Depression Visibility Wind Speed Wind Dir Waves Ship Positions

Norwegian Spirit

Operator: Norwegian Cruise Line

Last reported at 2014-Jul-23 21:33 UTC. Time now 2014-Jul-23 22:15 UTC.
Position N 36°44' E 023°60'.

Type: Ship. MMSI: 311746000.

Date/timePositionNaut miles runAvg speedWind from/ knotsBaromVisibWave heightAir tempDewpointWater temp
2014-Jul-23 21:33N 36°44' E 023°60'2121.0
2014-Jul-23 20:33N 36°57' E 024°20'2120.5
2014-Jul-23 19:33N 37°10' E 024°40'2120.8
2014-Jul-23 18:32N 37°22' E 025°01'1515.4
2014-Jul-23 17:33N 37°28' E 025°19'0 0.0
2014-Jul-23 16:31N 37°28' E 025°19'0 0.0
2014-Jul-23 15:33N 37°28' E 025°19'0 0.0
2014-Jul-23 14:33N 37°28' E 025°19'0 0.0
2014-Jul-23 13:33N 37°28' E 025°19'0 0.0
2014-Jul-23 12:32N 37°28' E 025°19'0 0.0
2014-Jul-23 11:32N 37°28' E 025°19'0 0.0
2014-Jul-23 10:31N 37°28' E 025°19'0 0.0
2014-Jul-23 09:31N 37°28' E 025°19'5 5.0
2014-Jul-23 08:33N 37°32' E 025°17'1817.5
2014-Jul-23 07:33N 37°50' E 025°16'1817.9
2014-Jul-23 06:33N 38°07' E 025°12'8919.8
2014-Jul-23 02:04N 39°34' E 025°38'1121.8
2014-Jul-23 01:34N 39°44' E 025°43'6615.8
2014-Jul-22 21:24N 40°27' E 026°48'18476.3
2014-Jul-22 19:00N 40°48' E 022°48'264158.7 040 / 201008.0 26.0
2014-Jul-22 17:20N 40°53' E 028°36'1620.8
2014-Jul-22 16:33N 40°57' E 028°57'98 5.9
2014-Jul-22 00:05N 40°28' E 026°53'4013.8
2014-Jul-21 21:11N 40°02' E 026°15'812.1
2014-Jul-21 20:32N 39°60' E 026°05'719.1
2014-Jul-21 20:09N 39°55' E 025°57'2020.5
2014-Jul-21 19:11N 39°38' E 025°45'3819.7
2014-Jul-21 17:15N 39°00' E 025°35'1 3.6
2014-Jul-21 17:00N 39°00' E 025°36'1828.1 330 / 151010.0 28.0
2014-Jul-21 16:21N 38°42' E 025°40'2020.5
2014-Jul-21 15:23N 38°22' E 025°43'3519.2
2014-Jul-21 13:32N 38°00' E 026°18'15 1.0
2014-Jul-20 23:14N 37°54' E 026°01'1214.5
2014-Jul-20 22:23N 37°51' E 025°46'411.4
2014-Jul-20 22:00N 37°48' E 025°42'918.3 350 / 301013.027.0 24.022.024.0
2014-Jul-20 21:30N 37°43' E 025°32'1415.3
2014-Jul-20 20:33N 37°33' E 025°19'1313.5
2014-Jul-20 19:33N 37°31' E 025°02'1615.2
2014-Jul-20 18:32N 37°32' E 024°43'610.9
2014-Jul-20 18:00N 37°30' E 024°36'1518.5 350 / 121012.0 26.0
2014-Jul-20 17:11N 37°29' E 024°17'11 9.4
2014-Jul-20 16:00N 37°36' E 024°06'1839.2 060 / 261011.0 30.0
2014-Jul-20 15:33N 37°39' E 023°44'1717.1
2014-Jul-20 14:33N 37°55' E 023°36'37 2.6
2014-Jul-20 00:04N 37°18' E 023°40'815.7
2014-Jul-19 23:31N 37°09' E 023°38'1515.8
2014-Jul-19 22:32N 36°54' E 023°35'1515.1
2014-Jul-19 21:33N 36°41' E 023°26'1515.0
2014-Jul-19 20:33N 36°27' E 023°18'610.4
2014-Jul-19 20:00N 36°24' E 023°12'20916.1 290 / 61012.0 25.0
2014-Jul-19 07:00N 38°42' E 019°54'16915.3 330 / 141013.0 25.0
2014-Jul-18 20:00N 41°00' E 017°48'2322.5 330 / 161017.0 23.0
2014-Jul-18 19:00N 41°18' E 017°30'   320 / 181017.0 27.0
2014-Jul-16 06:00N 44°36' E 013°24'4019.9 040 / 161018.0 26.0
2014-Jul-16 04:00N 44°00' E 013°48'2121.0 340 / 141012.0 24.0
2014-Jul-16 03:00N 43°48' E 014°12'28020.0 360 / 151016.0 24.0
2014-Jul-15 13:00N 40°36' E 018°48'18022.5 330 / 281012.0 24.0
2014-Jul-15 05:00N 37°48' E 020°12'16919.0 040 / 131012.0 23.0
2014-Jul-14 20:09N 36°31' E 023°20'1321.8
2014-Jul-14 19:32N 36°43' E 023°28'2121.4
2014-Jul-14 18:33N 37°03' E 023°36'2121.0
2014-Jul-14 17:33N 37°23' E 023°41'2121.0
2014-Jul-14 16:33N 37°44' E 023°40'1211.7
2014-Jul-14 15:31N 37°56' E 023°38'0 0.0
2014-Jul-14 14:34N 37°56' E 023°38'0 0.0
2014-Jul-14 13:33N 37°56' E 023°38'0 0.0
2014-Jul-14 12:33N 37°56' E 023°38'0 0.0
2014-Jul-14 11:32N 37°56' E 023°38'0 0.0
2014-Jul-14 10:32N 37°56' E 023°38'0 0.0
2014-Jul-14 09:31N 37°56' E 023°38'0 0.0
2014-Jul-14 08:31N 37°56' E 023°38'0 0.0
2014-Jul-14 07:33N 37°56' E 023°38'0 0.0
2014-Jul-14 06:33N 37°56' E 023°38'0 0.0
2014-Jul-14 05:20N 37°56' E 023°38'1 1.9
2014-Jul-14 04:33N 37°56' E 023°37'6 6.1
2014-Jul-14 03:33N 37°50' E 023°40'1916.6
2014-Jul-14 02:24N 37°35' E 023°55'1416.8
2014-Jul-14 01:34N 37°30' E 024°12'1616.1
2014-Jul-14 00:33N 37°33' E 024°32'1918.0
2014-Jul-13 23:31N 37°34' E 024°55'1717.1
2014-Jul-13 22:33N 37°31' E 025°16'  
Track history (hours):
 
Tides and Currents Weather Stations Pressure Air Temp Water Temp Dewpoint Dewpoint Depression Visibility Wind Speed Wind Dir Waves Ship Positions

Norwegian Spirit

Operator: Norwegian Cruise Line

Last reported at 2014-Jul-23 21:33 UTC. Time now 2014-Jul-23 22:15 UTC.
Position N 36°44' E 023°60'.

Type: Ship. MMSI: 311746000.

Date/timePositionNaut miles runAvg speedWind from/ knotsBaromVisibWave heightAir tempDewpointWater temp
2014-Jul-23 21:33N 36°44' E 023°60'2121.0
2014-Jul-23 20:33N 36°57' E 024°20'2120.5
2014-Jul-23 19:33N 37°10' E 024°40'2120.8
2014-Jul-23 18:32N 37°22' E 025°01'1515.4
2014-Jul-23 17:33N 37°28' E 025°19'0 0.0
2014-Jul-23 16:31N 37°28' E 025°19'0 0.0
2014-Jul-23 15:33N 37°28' E 025°19'0 0.0
2014-Jul-23 14:33N 37°28' E 025°19'0 0.0
2014-Jul-23 13:33N 37°28' E 025°19'0 0.0
2014-Jul-23 12:32N 37°28' E 025°19'0 0.0
2014-Jul-23 11:32N 37°28' E 025°19'0 0.0
2014-Jul-23 10:31N 37°28' E 025°19'0 0.0
2014-Jul-23 09:31N 37°28' E 025°19'5 5.0
2014-Jul-23 08:33N 37°32' E 025°17'1817.5
2014-Jul-23 07:33N 37°50' E 025°16'1817.9
2014-Jul-23 06:33N 38°07' E 025°12'8919.8
2014-Jul-23 02:04N 39°34' E 025°38'1121.8
2014-Jul-23 01:34N 39°44' E 025°43'6615.8
2014-Jul-22 21:24N 40°27' E 026°48'18476.3
2014-Jul-22 19:00N 40°48' E 022°48'264158.7 040 / 201008.0 26.0
2014-Jul-22 17:20N 40°53' E 028°36'1620.8
2014-Jul-22 16:33N 40°57' E 028°57'98 5.9
2014-Jul-22 00:05N 40°28' E 026°53'4013.8
2014-Jul-21 21:11N 40°02' E 026°15'812.1
2014-Jul-21 20:32N 39°60' E 026°05'719.1
2014-Jul-21 20:09N 39°55' E 025°57'2020.5
2014-Jul-21 19:11N 39°38' E 025°45'3819.7
2014-Jul-21 17:15N 39°00' E 025°35'1 3.6
2014-Jul-21 17:00N 39°00' E 025°36'1828.1 330 / 151010.0 28.0
2014-Jul-21 16:21N 38°42' E 025°40'2020.5
2014-Jul-21 15:23N 38°22' E 025°43'3519.2
2014-Jul-21 13:32N 38°00' E 026°18'15 1.0
2014-Jul-20 23:14N 37°54' E 026°01'1214.5
2014-Jul-20 22:23N 37°51' E 025°46'411.4
2014-Jul-20 22:00N 37°48' E 025°42'918.3 350 / 301013.027.0 24.022.024.0
2014-Jul-20 21:30N 37°43' E 025°32'1415.3
2014-Jul-20 20:33N 37°33' E 025°19'1313.5
2014-Jul-20 19:33N 37°31' E 025°02'1615.2
2014-Jul-20 18:32N 37°32' E 024°43'610.9
2014-Jul-20 18:00N 37°30' E 024°36'1518.5 350 / 121012.0 26.0
2014-Jul-20 17:11N 37°29' E 024°17'11 9.4
2014-Jul-20 16:00N 37°36' E 024°06'1839.2 060 / 261011.0 30.0
2014-Jul-20 15:33N 37°39' E 023°44'1717.1
2014-Jul-20 14:33N 37°55' E 023°36'37 2.6
2014-Jul-20 00:04N 37°18' E 023°40'815.7
2014-Jul-19 23:31N 37°09' E 023°38'1515.8
2014-Jul-19 22:32N 36°54' E 023°35'1515.1
2014-Jul-19 21:33N 36°41' E 023°26'1515.0
2014-Jul-19 20:33N 36°27' E 023°18'610.4
2014-Jul-19 20:00N 36°24' E 023°12'20916.1 290 / 61012.0 25.0
2014-Jul-19 07:00N 38°42' E 019°54'16915.3 330 / 141013.0 25.0
2014-Jul-18 20:00N 41°00' E 017°48'2322.5 330 / 161017.0 23.0
2014-Jul-18 19:00N 41°18' E 017°30'   320 / 181017.0 27.0
2014-Jul-16 06:00N 44°36' E 013°24'4019.9 040 / 161018.0 26.0
2014-Jul-16 04:00N 44°00' E 013°48'2121.0 340 / 141012.0 24.0
2014-Jul-16 03:00N 43°48' E 014°12'28020.0 360 / 151016.0 24.0
2014-Jul-15 13:00N 40°36' E 018°48'18022.5 330 / 281012.0 24.0
2014-Jul-15 05:00N 37°48' E 020°12'16919.0 040 / 131012.0 23.0
2014-Jul-14 20:09N 36°31' E 023°20'1321.8
2014-Jul-14 19:32N 36°43' E 023°28'2121.4
2014-Jul-14 18:33N 37°03' E 023°36'2121.0
2014-Jul-14 17:33N 37°23' E 023°41'2121.0
2014-Jul-14 16:33N 37°44' E 023°40'1211.7
2014-Jul-14 15:31N 37°56' E 023°38'0 0.0
2014-Jul-14 14:34N 37°56' E 023°38'0 0.0
2014-Jul-14 13:33N 37°56' E 023°38'0 0.0
2014-Jul-14 12:33N 37°56' E 023°38'0 0.0
2014-Jul-14 11:32N 37°56' E 023°38'0 0.0
2014-Jul-14 10:32N 37°56' E 023°38'0 0.0
2014-Jul-14 09:31N 37°56' E 023°38'0 0.0
2014-Jul-14 08:31N 37°56' E 023°38'0 0.0
2014-Jul-14 07:33N 37°56' E 023°38'0 0.0
2014-Jul-14 06:33N 37°56' E 023°38'0 0.0
2014-Jul-14 05:20N 37°56' E 023°38'1 1.9
2014-Jul-14 04:33N 37°56' E 023°37'6 6.1
2014-Jul-14 03:33N 37°50' E 023°40'1916.6
2014-Jul-14 02:24N 37°35' E 023°55'1416.8
2014-Jul-14 01:34N 37°30' E 024°12'1616.1
2014-Jul-14 00:33N 37°33' E 024°32'1918.0
2014-Jul-13 23:31N 37°34' E 024°55'1717.1
2014-Jul-13 22:33N 37°31' E 025°16'  

Dump ship's entire track history